createdAt,value
2018-03-22T00:00:32.928Z,15.20
2018-03-22T00:03:35.391Z,14.20
2018-03-22T00:06:37.961Z,14.90
2018-03-22T00:09:40.517Z,13.70
2018-03-22T00:12:43.097Z,14.07
2018-03-22T00:15:45.611Z,14.37
2018-03-22T00:18:48.101Z,14.33
2018-03-22T00:21:50.662Z,15.20
2018-03-22T00:24:53.234Z,15.00
2018-03-22T00:27:55.726Z,14.83
2018-03-22T00:30:58.242Z,14.63
2018-03-22T00:34:00.816Z,14.17
2018-03-22T00:37:03.379Z,15.60
2018-03-22T00:40:05.876Z,16.53
2018-03-22T00:43:08.401Z,15.63
2018-03-22T00:46:10.883Z,14.13
2018-03-22T00:49:13.331Z,16.63
2018-03-22T00:52:15.986Z,15.23
2018-03-22T00:55:18.552Z,16.13
2018-03-22T00:58:21.038Z,16.10
2018-03-22T01:01:23.568Z,15.87
2018-03-22T01:04:26.007Z,16.63
2018-03-22T01:07:28.477Z,15.53
2018-03-22T01:10:31.054Z,16.40
2018-03-22T01:13:33.523Z,18.97
2018-03-22T01:16:36.079Z,17.30
2018-03-22T01:19:38.560Z,18.73
2018-03-22T01:22:41.113Z,17.47
2018-03-22T01:25:43.567Z,18.57
2018-03-22T01:28:46.019Z,15.67
2018-03-22T01:31:48.522Z,18.37
2018-03-22T01:34:50.962Z,18.03
2018-03-22T01:37:53.511Z,18.47
2018-03-22T01:40:56.174Z,18.40
2018-03-22T01:43:58.839Z,17.40
2018-03-22T01:47:01.272Z,19.50
2018-03-22T01:50:03.734Z,18.40
2018-03-22T01:53:14.120Z,18.17
2018-03-22T01:56:16.674Z,18.40
2018-03-22T01:59:19.223Z,19.30
2018-03-22T02:02:21.664Z,18.70
2018-03-22T02:05:24.167Z,18.50
2018-03-22T02:08:26.608Z,18.30
2018-03-22T02:11:29.179Z,17.80
2018-03-22T02:14:31.835Z,17.50
2018-03-22T02:17:34.273Z,18.50
2018-03-22T02:20:36.732Z,18.00
2018-03-22T02:23:39.184Z,18.50
2018-03-22T02:26:41.690Z,19.77
2018-03-22T02:29:44.196Z,16.77
2018-03-22T02:32:46.718Z,18.20
2018-03-22T02:35:49.260Z,19.57
2018-03-22T02:38:51.795Z,19.50
2018-03-22T02:41:54.249Z,21.17
2018-03-22T02:44:56.720Z,20.93
2018-03-22T02:47:59.242Z,20.40
2018-03-22T02:51:01.879Z,22.63
2018-03-22T02:54:04.433Z,23.30
2018-03-22T02:57:06.864Z,22.13
2018-03-22T03:00:09.350Z,21.40
2018-03-22T03:03:11.777Z,23.00
2018-03-22T03:06:14.273Z,21.40
2018-03-22T03:09:16.740Z,23.40
2018-03-22T03:12:19.279Z,22.60
2018-03-22T03:15:21.865Z,21.70
2018-03-22T03:18:24.323Z,22.67
2018-03-22T03:21:26.884Z,21.40
2018-03-22T03:24:29.446Z,21.60
2018-03-22T03:27:31.884Z,20.83
2018-03-22T03:30:34.365Z,20.77
2018-03-22T03:33:36.929Z,20.03
2018-03-22T03:36:39.459Z,20.80
2018-03-22T03:39:41.925Z,20.37
2018-03-22T03:42:44.414Z,18.83
2018-03-22T03:45:46.875Z,19.67
2018-03-22T03:48:49.443Z,20.10
2018-03-22T03:51:51.896Z,20.70
2018-03-22T03:54:54.460Z,19.97
2018-03-22T03:57:57.024Z,20.83
2018-03-22T04:00:59.570Z,20.87
2018-03-22T04:04:02.053Z,22.07
2018-03-22T04:07:04.553Z,21.80
2018-03-22T04:10:07.070Z,21.43
2018-03-22T04:13:09.600Z,23.97
2018-03-22T04:16:12.087Z,23.30
2018-03-22T04:19:14.611Z,24.20
2018-03-22T04:22:17.093Z,22.33
2018-03-22T04:25:19.684Z,24.90
2018-03-22T04:28:22.111Z,23.07
2018-03-22T04:31:24.579Z,24.97
2018-03-22T04:34:27.034Z,25.63
2018-03-22T04:37:29.521Z,25.47
2018-03-22T04:40:31.984Z,25.60
2018-03-22T04:43:34.443Z,25.50
2018-03-22T04:46:37.009Z,27.57
2018-03-22T04:49:39.525Z,28.43
2018-03-22T04:52:42.039Z,28.63
2018-03-22T04:55:44.495Z,28.50
2018-03-22T04:58:47.051Z,28.80
2018-03-22T05:01:49.489Z,28.53
2018-03-22T05:04:51.980Z,28.40
2018-03-22T05:07:54.470Z,29.30
2018-03-22T05:10:57.076Z,29.87
2018-03-22T05:13:59.560Z,30.60
2018-03-22T05:17:02.078Z,30.13
2018-03-22T05:20:04.579Z,29.90
2018-03-22T05:23:07.032Z,30.50
2018-03-22T05:26:09.709Z,31.10
2018-03-22T05:29:12.154Z,31.47
2018-03-22T05:32:14.655Z,32.40
2018-03-22T05:35:17.192Z,29.50
2018-03-22T05:38:19.686Z,32.40
2018-03-22T05:41:22.214Z,33.50
2018-03-22T05:44:24.692Z,34.13
2018-03-22T05:47:27.176Z,34.13
2018-03-22T05:50:29.673Z,35.47
2018-03-22T05:53:32.107Z,36.80
2018-03-22T05:56:34.582Z,35.40
2018-03-22T05:59:38.001Z,34.97
2018-03-22T06:02:40.494Z,35.63
2018-03-22T06:05:43.022Z,36.87
2018-03-22T06:08:45.502Z,32.63
2018-03-22T06:11:48.045Z,34.00
2018-03-22T06:14:50.596Z,31.10
2018-03-22T06:17:53.066Z,31.27
2018-03-22T06:20:55.543Z,30.90
2018-03-22T06:23:57.960Z,31.63
2018-03-22T06:27:00.445Z,27.40
2018-03-22T06:30:02.918Z,29.80
2018-03-22T06:33:05.410Z,29.50
2018-03-22T06:36:07.900Z,26.07
2018-03-22T06:39:10.395Z,25.97
2018-03-22T06:42:12.874Z,28.23
2018-03-22T06:45:15.425Z,23.77
2018-03-22T06:48:17.877Z,26.57
2018-03-22T06:51:20.444Z,21.77
2018-03-22T06:54:22.941Z,26.50
2018-03-22T06:57:25.526Z,24.93
2018-03-22T07:00:28.042Z,26.40
2018-03-22T07:03:30.531Z,26.97
2018-03-22T07:06:33.057Z,25.60
2018-03-22T07:09:35.531Z,27.77
2018-03-22T07:12:38.076Z,27.20
2018-03-22T07:15:40.638Z,28.23
2018-03-22T07:18:43.138Z,27.60
2018-03-22T07:21:45.600Z,26.90
2018-03-22T07:24:48.120Z,28.63
2018-03-22T07:27:50.690Z,26.00
2018-03-22T07:30:53.151Z,24.30
2018-03-22T07:33:55.624Z,19.17
2018-03-22T07:36:58.117Z,27.73
2018-03-22T07:40:00.633Z,25.40
2018-03-22T07:43:08.924Z,24.60
2018-03-22T07:46:11.396Z,25.27
2018-03-22T07:49:13.952Z,23.63
2018-03-22T07:52:16.423Z,26.30
2018-03-22T07:55:18.891Z,25.77
2018-03-22T07:58:21.408Z,26.27
2018-03-22T08:01:23.864Z,27.10
2018-03-22T08:04:26.302Z,26.80
2018-03-22T08:07:28.787Z,26.30
2018-03-22T08:10:31.227Z,28.20
2018-03-22T08:13:33.693Z,26.23
2018-03-22T08:16:36.149Z,26.77
2018-03-22T08:19:38.658Z,27.20
2018-03-22T08:22:41.229Z,27.03
2018-03-22T08:25:43.787Z,26.90
2018-03-22T08:28:46.281Z,26.87
2018-03-22T08:31:48.721Z,29.13
2018-03-22T08:34:51.262Z,28.23
2018-03-22T08:37:53.727Z,25.10
2018-03-22T08:40:56.207Z,26.83
2018-03-22T08:43:58.748Z,25.57
2018-03-22T08:47:01.216Z,24.57
2018-03-22T08:50:03.669Z,27.17
2018-03-22T08:53:06.133Z,24.23
2018-03-22T08:56:08.697Z,24.20
2018-03-22T08:59:11.174Z,25.30
2018-03-22T09:02:13.659Z,24.03
2018-03-22T09:05:16.150Z,22.90
2018-03-22T09:08:18.606Z,24.47
2018-03-22T09:11:21.097Z,22.90
2018-03-22T09:14:23.620Z,21.60
2018-03-22T09:17:26.128Z,21.90
2018-03-22T09:20:28.593Z,21.87
2018-03-22T09:23:31.114Z,20.60
2018-03-22T09:26:39.237Z,19.77
2018-03-22T09:29:41.675Z,19.67
2018-03-22T09:32:44.165Z,19.77
2018-03-22T09:35:46.723Z,20.33
2018-03-22T09:38:49.184Z,18.53
2018-03-22T09:41:51.679Z,19.30
2018-03-22T09:44:54.221Z,17.73
2018-03-22T09:47:57.427Z,17.87
2018-03-22T09:50:59.908Z,17.13
2018-03-22T09:54:02.384Z,18.30
2018-03-22T09:57:04.885Z,18.93
2018-03-22T10:00:07.379Z,19.10
2018-03-22T10:03:09.888Z,17.20
2018-03-22T10:06:12.320Z,17.70
2018-03-22T10:09:14.909Z,17.67
2018-03-22T10:12:17.475Z,15.40
2018-03-22T10:15:19.909Z,15.70
2018-03-22T10:18:22.394Z,16.33
2018-03-22T10:21:24.957Z,16.70
2018-03-22T10:24:27.395Z,16.07
2018-03-22T10:27:29.878Z,15.97
2018-03-22T10:30:32.444Z,15.00
2018-03-22T10:33:34.908Z,15.37
2018-03-22T10:36:37.345Z,14.30
2018-03-22T10:39:39.829Z,14.13
2018-03-22T10:42:42.315Z,14.80
2018-03-22T10:45:44.826Z,13.80
2018-03-22T10:48:47.278Z,13.47
2018-03-22T10:51:49.763Z,13.40
2018-03-22T10:54:52.224Z,14.17
2018-03-22T10:57:54.686Z,12.20
2018-03-22T11:01:02.884Z,12.67
2018-03-22T11:04:08.185Z,11.93
2018-03-22T11:07:10.723Z,11.87
2018-03-22T11:10:13.188Z,12.97
2018-03-22T11:13:15.791Z,12.77
2018-03-22T11:16:18.234Z,13.07
2018-03-22T11:19:20.709Z,13.13
2018-03-22T11:22:23.230Z,14.20
2018-03-22T11:25:25.688Z,15.37
2018-03-22T11:28:28.168Z,14.90
2018-03-22T11:31:30.655Z,15.60
2018-03-22T11:34:33.130Z,16.53
2018-03-22T11:37:35.633Z,17.00
2018-03-22T11:40:38.151Z,16.80
2018-03-22T11:43:40.648Z,16.50
2018-03-22T11:46:43.170Z,16.70
2018-03-22T11:49:45.661Z,16.80
2018-03-22T11:52:48.189Z,17.83
2018-03-22T11:55:50.647Z,17.13
2018-03-22T11:58:53.119Z,17.47
2018-03-22T12:01:55.682Z,16.70
2018-03-22T12:04:58.184Z,16.83
2018-03-22T12:08:00.644Z,17.27
2018-03-22T12:11:03.183Z,16.97
2018-03-22T12:14:05.609Z,16.50
2018-03-22T12:17:08.089Z,17.50
2018-03-22T12:20:10.635Z,17.17
2018-03-22T12:23:13.106Z,17.80
2018-03-22T12:26:15.865Z,16.83
2018-03-22T12:29:18.295Z,16.93
2018-03-22T12:32:20.788Z,16.70
2018-03-22T12:35:23.454Z,17.23
2018-03-22T12:38:25.959Z,17.30
2018-03-22T12:41:28.507Z,16.20
2018-03-22T12:44:31.037Z,16.77
2018-03-22T12:47:33.663Z,16.73
2018-03-22T12:50:36.166Z,15.93
2018-03-22T12:53:38.650Z,16.37
2018-03-22T12:56:41.194Z,16.53
2018-03-22T12:59:43.717Z,16.43
2018-03-22T13:02:46.170Z,16.57
2018-03-22T13:05:48.657Z,15.60
2018-03-22T13:08:51.238Z,15.50
2018-03-22T13:11:53.722Z,15.60
2018-03-22T13:14:56.258Z,16.33
2018-03-22T13:17:58.825Z,16.20
2018-03-22T13:21:01.298Z,16.07
2018-03-22T13:24:03.801Z,15.90
2018-03-22T13:27:06.407Z,15.80
2018-03-22T13:30:08.967Z,15.20
2018-03-22T13:33:11.413Z,15.43
2018-03-22T13:36:13.915Z,14.80
2018-03-22T13:39:16.346Z,13.10
2018-03-22T13:42:18.857Z,12.63
2018-03-22T13:45:21.395Z,13.60
2018-03-22T13:48:23.863Z,14.10
2018-03-22T13:51:26.361Z,13.37
2018-03-22T13:54:28.861Z,13.50
2018-03-22T13:57:31.337Z,12.63
2018-03-22T14:00:34.697Z,13.00
2018-03-22T14:03:37.276Z,12.67
2018-03-22T14:06:39.827Z,12.53
2018-03-22T14:09:42.367Z,11.20
2018-03-22T14:12:44.907Z,11.83
2018-03-22T14:15:47.416Z,11.20
2018-03-22T14:18:50.041Z,11.60
2018-03-22T14:21:52.542Z,11.43
2018-03-22T14:24:55.218Z,9.50
2018-03-22T14:27:57.728Z,9.37
2018-03-22T14:31:00.244Z,9.03
2018-03-22T14:34:02.792Z,8.77
2018-03-22T14:37:05.267Z,7.97
2018-03-22T14:40:07.711Z,7.70
2018-03-22T14:43:10.685Z,6.60
2018-03-22T14:46:13.157Z,6.80
2018-03-22T14:49:15.705Z,7.13
2018-03-22T14:52:18.168Z,6.50
2018-03-22T14:55:20.638Z,5.10
2018-03-22T14:58:23.192Z,4.67
2018-03-22T15:01:25.769Z,5.40
2018-03-22T15:04:28.285Z,5.37
2018-03-22T15:07:30.873Z,5.00
2018-03-22T15:10:33.412Z,4.73
2018-03-22T15:13:35.899Z,5.00
2018-03-22T15:16:38.397Z,4.30
2018-03-22T15:19:40.932Z,4.30
2018-03-22T15:22:43.382Z,4.10
2018-03-22T15:25:45.859Z,3.80
2018-03-22T15:28:48.408Z,4.17
2018-03-22T15:31:50.937Z,3.90
2018-03-22T15:34:53.444Z,4.80
2018-03-22T15:37:55.972Z,4.70
2018-03-22T15:40:58.411Z,4.60
2018-03-22T15:44:00.859Z,6.70
2018-03-22T15:47:03.375Z,4.00
2018-03-22T15:50:05.939Z,3.57
2018-03-22T15:53:08.397Z,3.00
2018-03-22T15:56:10.968Z,3.50
2018-03-22T15:59:13.468Z,3.47
2018-03-22T16:02:15.934Z,3.30
2018-03-22T16:05:18.437Z,3.70
2018-03-22T16:08:20.906Z,3.60
2018-03-22T16:11:23.414Z,2.90
2018-03-22T16:14:25.883Z,2.60
2018-03-22T16:17:28.388Z,2.60
2018-03-22T16:20:30.901Z,3.60
2018-03-22T16:23:33.392Z,2.77
2018-03-22T16:26:35.974Z,3.40
2018-03-22T16:29:38.420Z,3.33
2018-03-22T16:32:40.937Z,3.37
2018-03-22T16:35:43.433Z,3.50
2018-03-22T16:38:47.102Z,3.57
2018-03-22T16:41:49.594Z,3.73
2018-03-22T16:44:52.045Z,3.30
2018-03-22T16:47:54.542Z,3.27
2018-03-22T16:50:57.020Z,3.73
2018-03-22T16:53:59.503Z,3.30
2018-03-22T16:57:02.019Z,3.70
2018-03-22T17:00:04.602Z,3.60
2018-03-22T17:03:07.055Z,3.40
2018-03-22T17:06:09.534Z,3.93
2018-03-22T17:09:12.010Z,3.50
2018-03-22T17:12:14.504Z,3.80
2018-03-22T17:15:17.538Z,7.00
2018-03-22T17:18:20.032Z,6.50
2018-03-22T17:21:22.493Z,4.67
2018-03-22T17:24:25.079Z,6.13
2018-03-22T17:27:27.641Z,6.30
2018-03-22T17:30:30.226Z,7.90
2018-03-22T17:33:32.787Z,5.07
2018-03-22T17:36:35.338Z,6.10
2018-03-22T17:39:37.995Z,5.37
2018-03-22T17:42:40.518Z,14.20
2018-03-22T17:45:43.120Z,13.10
2018-03-22T17:48:45.611Z,15.57
2018-03-22T17:51:48.145Z,8.93
2018-03-22T17:54:50.817Z,9.00
2018-03-22T17:57:53.309Z,10.10
2018-03-22T18:00:55.865Z,9.10
2018-03-22T18:03:58.407Z,11.63
2018-03-22T18:07:00.924Z,9.83
2018-03-22T18:10:03.526Z,10.20
2018-03-22T18:13:06.167Z,10.57
2018-03-22T18:16:08.964Z,7.90
2018-03-22T18:19:11.444Z,6.87
2018-03-22T18:22:13.952Z,8.70
2018-03-22T18:25:16.404Z,8.90
2018-03-22T18:28:19.010Z,13.10
2018-03-22T18:31:21.564Z,11.30
2018-03-22T18:34:24.124Z,12.90
2018-03-22T18:37:26.656Z,15.00
2018-03-22T18:40:29.275Z,17.87
2018-03-22T18:43:31.817Z,17.30
2018-03-22T18:46:34.390Z,10.57
2018-03-22T18:49:36.894Z,11.00
2018-03-22T18:52:39.351Z,9.33
2018-03-22T18:55:41.882Z,8.10
2018-03-22T18:58:44.383Z,12.60
2018-03-22T19:01:46.929Z,9.93
2018-03-22T19:04:49.446Z,11.13
2018-03-22T19:07:51.906Z,9.07
2018-03-22T19:10:54.482Z,8.67
2018-03-22T19:13:56.975Z,10.03
2018-03-22T19:16:59.470Z,8.80
2018-03-22T19:20:02.002Z,9.93
2018-03-22T19:23:04.560Z,8.80
2018-03-22T19:26:07.081Z,8.70
2018-03-22T19:29:09.601Z,8.60
2018-03-22T19:32:12.105Z,8.70
2018-03-22T19:35:14.670Z,9.33
2018-03-22T19:38:17.196Z,9.17
2018-03-22T19:41:19.687Z,14.57
2018-03-22T19:44:22.202Z,13.27
2018-03-22T19:47:24.721Z,8.37
2018-03-22T19:50:27.375Z,9.27
2018-03-22T19:53:29.872Z,9.53
2018-03-22T19:56:32.402Z,10.60
2018-03-22T19:59:34.993Z,9.90
2018-03-22T20:02:37.496Z,8.47
2018-03-22T20:05:40.158Z,10.77
2018-03-22T20:08:42.652Z,9.83
2018-03-22T20:11:45.198Z,11.50
2018-03-22T20:14:47.687Z,10.53
2018-03-22T20:17:50.228Z,11.37
2018-03-22T20:20:52.779Z,12.43
2018-03-22T20:23:55.297Z,11.83
2018-03-22T20:26:57.875Z,10.50
2018-03-22T20:30:00.385Z,11.00
2018-03-22T20:33:02.950Z,12.07
2018-03-22T20:36:05.573Z,17.40
2018-03-22T20:39:08.132Z,11.93
2018-03-22T20:42:12.042Z,12.07
2018-03-22T20:45:14.627Z,12.37
2018-03-22T20:48:17.163Z,12.83
2018-03-22T20:51:19.707Z,12.10
2018-03-22T20:54:22.253Z,10.70
2018-03-22T20:57:24.725Z,11.40
2018-03-22T21:00:27.276Z,13.60
2018-03-22T21:03:29.748Z,11.70
2018-03-22T21:06:32.469Z,12.73
2018-03-22T21:09:35.001Z,12.70
2018-03-22T21:12:37.539Z,11.20
2018-03-22T21:15:40.056Z,10.90
2018-03-22T21:18:42.607Z,11.03
2018-03-22T21:21:45.064Z,11.37
2018-03-22T21:24:47.747Z,11.40
2018-03-22T21:27:50.282Z,11.07
2018-03-22T21:30:52.762Z,9.83
2018-03-22T21:33:55.288Z,9.50
2018-03-22T21:36:57.773Z,10.80
2018-03-22T21:40:00.303Z,10.70
2018-03-22T21:43:02.813Z,9.83
2018-03-22T21:46:05.313Z,9.53
2018-03-22T21:49:07.809Z,8.53
2018-03-22T21:52:22.071Z,8.23
2018-03-22T21:55:24.634Z,9.17
2018-03-22T21:58:27.202Z,8.57
2018-03-22T22:01:29.702Z,8.30
2018-03-22T22:04:32.214Z,7.43
2018-03-22T22:07:34.729Z,7.87
2018-03-22T22:10:37.217Z,6.97
2018-03-22T22:13:39.694Z,6.73
2018-03-22T22:16:42.217Z,6.83
2018-03-22T22:19:44.864Z,6.00
2018-03-22T22:22:47.313Z,5.47
2018-03-22T22:25:49.798Z,5.30
2018-03-22T22:28:52.296Z,5.00
2018-03-22T22:31:54.776Z,4.40
2018-03-22T22:34:57.290Z,5.00
2018-03-22T22:37:59.758Z,4.77
2018-03-22T22:41:02.278Z,5.90
2018-03-22T22:44:04.792Z,5.67
2018-03-22T22:47:07.379Z,5.00
2018-03-22T22:50:09.862Z,4.30
2018-03-22T22:53:12.383Z,4.63
2018-03-22T22:56:14.933Z,4.63
2018-03-22T22:59:17.424Z,4.83
2018-03-22T23:02:19.866Z,5.30
2018-03-22T23:05:22.380Z,5.00
2018-03-22T23:08:24.860Z,4.83
2018-03-22T23:11:27.347Z,4.87
2018-03-22T23:14:29.813Z,5.10
2018-03-22T23:17:32.338Z,6.27
2018-03-22T23:20:34.863Z,7.63
2018-03-22T23:23:37.349Z,6.57
2018-03-22T23:26:39.829Z,6.60
2018-03-22T23:29:42.339Z,7.20
2018-03-22T23:32:44.825Z,6.90
2018-03-22T23:35:47.362Z,6.77
2018-03-22T23:38:49.870Z,6.70
2018-03-22T23:41:52.348Z,5.50
2018-03-22T23:44:54.886Z,5.73
2018-03-22T23:47:57.391Z,5.47
2018-03-22T23:50:59.875Z,6.10
2018-03-22T23:54:02.368Z,5.30
2018-03-22T23:57:04.807Z,5.60
